sensor_id;sensor_type;location;lat;lon;timestamp;temperature;humidity
12971;DHT22;6550;48.650;8.774;2023-06-26T00:00:59;15.40;99.90
12971;DHT22;6550;48.650;8.774;2023-06-26T00:03:28;15.40;99.90
12971;DHT22;6550;48.650;8.774;2023-06-26T00:05:56;15.60;99.90
12971;DHT22;6550;48.650;8.774;2023-06-26T00:08:28;15.20;99.90
12971;DHT22;6550;48.650;8.774;2023-06-26T00:10:55;16.50;99.90
12971;DHT22;6550;48.650;8.774;2023-06-26T00:13:23;15.50;99.90
12971;DHT22;6550;48.650;8.774;2023-06-26T00:15:50;15.50;99.90
12971;DHT22;6550;48.650;8.774;2023-06-26T00:18:17;15.50;99.90
12971;DHT22;6550;48.650;8.774;2023-06-26T00:20:44;15.30;99.90
12971;DHT22;6550;48.650;8.774;2023-06-26T00:23:16;15.20;99.90
12971;DHT22;6550;48.650;8.774;2023-06-26T00:25:43;15.10;99.90
12971;DHT22;6550;48.650;8.774;2023-06-26T00:28:13;15.20;99.90
12971;DHT22;6550;48.650;8.774;2023-06-26T00:30:45;15.20;99.90
12971;DHT22;6550;48.650;8.774;2023-06-26T00:33:12;15.30;99.90
12971;DHT22;6550;48.650;8.774;2023-06-26T00:35:38;14.90;99.90
12971;DHT22;6550;48.650;8.774;2023-06-26T00:38:05;15.70;99.90
12971;DHT22;6550;48.650;8.774;2023-06-26T00:40:34;15.10;99.90
12971;DHT22;6550;48.650;8.774;2023-06-26T00:43:04;15.10;99.90
12971;DHT22;6550;48.650;8.774;2023-06-26T00:45:33;15.20;99.90
12971;DHT22;6550;48.650;8.774;2023-06-26T00:48:10;15.10;99.90
12971;DHT22;6550;48.650;8.774;2023-06-26T00:50:41;14.80;99.90
12971;DHT22;6550;48.650;8.774;2023-06-26T00:53:12;15.00;99.90
12971;DHT22;6550;48.650;8.774;2023-06-26T00:55:39;14.90;99.90
12971;DHT22;6550;48.650;8.774;2023-06-26T00:58:06;14.90;99.90
12971;DHT22;6550;48.650;8.774;2023-06-26T01:00:33;14.90;99.90
12971;DHT22;6550;48.650;8.774;2023-06-26T01:03:02;15.00;99.90
12971;DHT22;6550;48.650;8.774;2023-06-26T01:05:30;14.70;99.90
12971;DHT22;6550;48.650;8.774;2023-06-26T01:07:57;14.90;99.90
12971;DHT22;6550;48.650;8.774;2023-06-26T01:10:25;14.90;99.90
12971;DHT22;6550;48.650;8.774;2023-06-26T01:12:55;14.60;99.90
12971;DHT22;6550;48.650;8.774;2023-06-26T01:15:24;15.20;99.90
12971;DHT22;6550;48.650;8.774;2023-06-26T01:17:51;15.20;99.90
12971;DHT22;6550;48.650;8.774;2023-06-26T01:20:32;15.20;99.90
12971;DHT22;6550;48.650;8.774;2023-06-26T01:23:29;15.20;99.90
12971;DHT22;6550;48.650;8.774;2023-06-26T01:28:47;15.10;99.90
12971;DHT22;6550;48.650;8.774;2023-06-26T01:31:15;15.10;99.90
12971;DHT22;6550;48.650;8.774;2023-06-26T01:33:45;14.60;99.90
12971;DHT22;6550;48.650;8.774;2023-06-26T01:36:12;14.40;99.90
12971;DHT22;6550;48.650;8.774;2023-06-26T01:38:39;14.30;99.90
12971;DHT22;6550;48.650;8.774;2023-06-26T01:41:09;14.70;99.90
12971;DHT22;6550;48.650;8.774;2023-06-26T01:49:56;14.20;99.90
12971;DHT22;6550;48.650;8.774;2023-06-26T01:52:31;14.60;99.90
12971;DHT22;6550;48.650;8.774;2023-06-26T01:55:08;14.90;99.90
12971;DHT22;6550;48.650;8.774;2023-06-26T01:57:38;14.30;99.90
12971;DHT22;6550;48.650;8.774;2023-06-26T02:00:09;14.00;99.90
12971;DHT22;6550;48.650;8.774;2023-06-26T02:02:40;14.00;99.90
12971;DHT22;6550;48.650;8.774;2023-06-26T02:05:08;13.80;99.90
12971;DHT22;6550;48.650;8.774;2023-06-26T02:07:37;13.90;99.90
12971;DHT22;6550;48.650;8.774;2023-06-26T02:10:04;14.60;99.90
12971;DHT22;6550;48.650;8.774;2023-06-26T02:12:31;14.40;99.90
12971;DHT22;6550;48.650;8.774;2023-06-26T02:14:57;14.20;99.90
12971;DHT22;6550;48.650;8.774;2023-06-26T02:17:24;14.30;99.90
12971;DHT22;6550;48.650;8.774;2023-06-26T02:19:51;14.80;99.90
12971;DHT22;6550;48.650;8.774;2023-06-26T02:22:20;14.30;99.90
12971;DHT22;6550;48.650;8.774;2023-06-26T02:24:52;14.10;99.90
12971;DHT22;6550;48.650;8.774;2023-06-26T02:27:21;13.90;99.90
12971;DHT22;6550;48.650;8.774;2023-06-26T02:29:48;14.00;99.90
12971;DHT22;6550;48.650;8.774;2023-06-26T02:32:17;14.10;99.90
12971;DHT22;6550;48.650;8.774;2023-06-26T02:34:44;14.20;99.90
12971;DHT22;6550;48.650;8.774;2023-06-26T02:37:13;13.80;99.90
12971;DHT22;6550;48.650;8.774;2023-06-26T02:39:42;13.60;99.90
12971;DHT22;6550;48.650;8.774;2023-06-26T02:42:09;14.70;99.90
12971;DHT22;6550;48.650;8.774;2023-06-26T02:44:36;14.00;99.90
12971;DHT22;6550;48.650;8.774;2023-06-26T02:47:03;14.20;99.90
12971;DHT22;6550;48.650;8.774;2023-06-26T02:49:29;14.20;99.90
12971;DHT22;6550;48.650;8.774;2023-06-26T02:51:56;14.40;99.90
12971;DHT22;6550;48.650;8.774;2023-06-26T02:54:25;13.90;99.90
12971;DHT22;6550;48.650;8.774;2023-06-26T02:56:52;14.20;99.90
12971;DHT22;6550;48.650;8.774;2023-06-26T02:59:19;14.30;99.90
12971;DHT22;6550;48.650;8.774;2023-06-26T03:01:45;14.10;99.90
12971;DHT22;6550;48.650;8.774;2023-06-26T03:04:12;13.60;99.90
12971;DHT22;6550;48.650;8.774;2023-06-26T03:06:42;13.80;99.90
12971;DHT22;6550;48.650;8.774;2023-06-26T03:09:08;13.40;99.90
12971;DHT22;6550;48.650;8.774;2023-06-26T03:11:36;14.10;99.90
12971;DHT22;6550;48.650;8.774;2023-06-26T03:14:05;13.60;99.90
12971;DHT22;6550;48.650;8.774;2023-06-26T03:16:34;14.70;99.90
12971;DHT22;6550;48.650;8.774;2023-06-26T03:19:00;14.70;99.90
12971;DHT22;6550;48.650;8.774;2023-06-26T03:21:29;13.70;99.90
12971;DHT22;6550;48.650;8.774;2023-06-26T03:23:56;13.80;99.90
12971;DHT22;6550;48.650;8.774;2023-06-26T03:26:25;13.80;99.90
12971;DHT22;6550;48.650;8.774;2023-06-26T03:28:54;14.10;99.90
12971;DHT22;6550;48.650;8.774;2023-06-26T03:31:21;14.00;99.90
12971;DHT22;6550;48.650;8.774;2023-06-26T03:33:53;13.80;99.90
12971;DHT22;6550;48.650;8.774;2023-06-26T03:36:22;13.50;99.90
12971;DHT22;6550;48.650;8.774;2023-06-26T03:38:48;13.30;99.90
12971;DHT22;6550;48.650;8.774;2023-06-26T03:41:19;13.10;99.90
12971;DHT22;6550;48.650;8.774;2023-06-26T03:43:51;13.20;99.90
12971;DHT22;6550;48.650;8.774;2023-06-26T03:46:21;13.20;99.90
12971;DHT22;6550;48.650;8.774;2023-06-26T03:48:48;13.90;99.90
12971;DHT22;6550;48.650;8.774;2023-06-26T03:51:17;13.80;99.90
12971;DHT22;6550;48.650;8.774;2023-06-26T03:53:47;13.90;99.90
12971;DHT22;6550;48.650;8.774;2023-06-26T03:56:13;13.80;99.90
12971;DHT22;6550;48.650;8.774;2023-06-26T03:58:40;13.80;99.90
12971;DHT22;6550;48.650;8.774;2023-06-26T04:01:07;13.70;99.90
12971;DHT22;6550;48.650;8.774;2023-06-26T04:03:34;14.00;99.90
12971;DHT22;6550;48.650;8.774;2023-06-26T04:06:01;13.80;99.90
12971;DHT22;6550;48.650;8.774;2023-06-26T04:08:30;13.80;99.90
12971;DHT22;6550;48.650;8.774;2023-06-26T04:10:57;13.80;99.90
12971;DHT22;6550;48.650;8.774;2023-06-26T04:13:25;13.80;99.90
12971;DHT22;6550;48.650;8.774;2023-06-26T04:15:56;13.90;99.90
12971;DHT22;6550;48.650;8.774;2023-06-26T04:18:23;13.80;99.90
12971;DHT22;6550;48.650;8.774;2023-06-26T04:23:35;13.90;99.90
12971;DHT22;6550;48.650;8.774;2023-06-26T04:26:02;14.00;99.90
12971;DHT22;6550;48.650;8.774;2023-06-26T04:28:34;13.90;99.90
12971;DHT22;6550;48.650;8.774;2023-06-26T04:31:04;15.60;99.90
12971;DHT22;6550;48.650;8.774;2023-06-26T04:33:33;14.40;99.90
12971;DHT22;6550;48.650;8.774;2023-06-26T04:36:00;14.60;99.90
12971;DHT22;6550;48.650;8.774;2023-06-26T04:38:31;14.60;99.90
12971;DHT22;6550;48.650;8.774;2023-06-26T04:40:59;14.60;99.90
12971;DHT22;6550;48.650;8.774;2023-06-26T04:43:31;14.50;99.90
12971;DHT22;6550;48.650;8.774;2023-06-26T04:46:02;14.20;99.90
12971;DHT22;6550;48.650;8.774;2023-06-26T04:48:28;14.30;99.90
12971;DHT22;6550;48.650;8.774;2023-06-26T04:50:57;14.60;99.90
12971;DHT22;6550;48.650;8.774;2023-06-26T04:53:25;15.00;99.90
12971;DHT22;6550;48.650;8.774;2023-06-26T04:55:52;15.10;99.90
12971;DHT22;6550;48.650;8.774;2023-06-26T04:58:19;15.70;99.90
12971;DHT22;6550;48.650;8.774;2023-06-26T05:00:46;15.50;99.90
12971;DHT22;6550;48.650;8.774;2023-06-26T05:03:17;15.20;99.90
12971;DHT22;6550;48.650;8.774;2023-06-26T05:05:47;17.20;99.90
12971;DHT22;6550;48.650;8.774;2023-06-26T05:08:21;15.80;99.90
12971;DHT22;6550;48.650;8.774;2023-06-26T05:10:52;15.90;99.90
12971;DHT22;6550;48.650;8.774;2023-06-26T05:13:26;16.10;99.90
12971;DHT22;6550;48.650;8.774;2023-06-26T05:15:55;16.10;99.90
12971;DHT22;6550;48.650;8.774;2023-06-26T05:18:21;16.00;99.90
12971;DHT22;6550;48.650;8.774;2023-06-26T05:20:48;16.00;99.90
12971;DHT22;6550;48.650;8.774;2023-06-26T05:23:18;16.20;99.90
12971;DHT22;6550;48.650;8.774;2023-06-26T05:25:48;16.70;99.90
12971;DHT22;6550;48.650;8.774;2023-06-26T05:28:16;17.10;99.90
12971;DHT22;6550;48.650;8.774;2023-06-26T05:30:46;17.30;99.90
12971;DHT22;6550;48.650;8.774;2023-06-26T05:33:14;17.60;99.90
12971;DHT22;6550;48.650;8.774;2023-06-26T05:35:46;17.90;99.90
12971;DHT22;6550;48.650;8.774;2023-06-26T05:38:14;18.00;99.90
12971;DHT22;6550;48.650;8.774;2023-06-26T05:40:43;18.30;99.90
12971;DHT22;6550;48.650;8.774;2023-06-26T05:43:11;18.40;99.90
12971;DHT22;6550;48.650;8.774;2023-06-26T05:45:37;18.60;99.90
12971;DHT22;6550;48.650;8.774;2023-06-26T05:48:05;18.80;99.90
12971;DHT22;6550;48.650;8.774;2023-06-26T05:50:34;19.00;99.90
12971;DHT22;6550;48.650;8.774;2023-06-26T05:53:02;18.90;99.90
12971;DHT22;6550;48.650;8.774;2023-06-26T05:55:30;19.10;99.90
12971;DHT22;6550;48.650;8.774;2023-06-26T05:58:00;19.30;99.90
12971;DHT22;6550;48.650;8.774;2023-06-26T06:00:29;19.40;99.90
12971;DHT22;6550;48.650;8.774;2023-06-26T06:02:55;19.50;99.90
12971;DHT22;6550;48.650;8.774;2023-06-26T06:05:22;19.60;99.90
12971;DHT22;6550;48.650;8.774;2023-06-26T06:07:52;19.70;99.90
12971;DHT22;6550;48.650;8.774;2023-06-26T06:10:19;19.70;99.90
12971;DHT22;6550;48.650;8.774;2023-06-26T06:12:46;19.60;99.90
12971;DHT22;6550;48.650;8.774;2023-06-26T06:15:12;19.50;99.90
12971;DHT22;6550;48.650;8.774;2023-06-26T06:17:39;19.60;99.90
12971;DHT22;6550;48.650;8.774;2023-06-26T06:20:07;20.00;99.90
12971;DHT22;6550;48.650;8.774;2023-06-26T06:22:33;20.10;99.90
12971;DHT22;6550;48.650;8.774;2023-06-26T06:25:00;20.10;99.70
12971;DHT22;6550;48.650;8.774;2023-06-26T06:27:27;20.50;99.60
12971;DHT22;6550;48.650;8.774;2023-06-26T06:32:22;20.70;98.90
12971;DHT22;6550;48.650;8.774;2023-06-26T06:34:51;20.80;98.40
12971;DHT22;6550;48.650;8.774;2023-06-26T06:37:18;20.90;98.60
12971;DHT22;6550;48.650;8.774;2023-06-26T06:39:44;21.10;97.90
12971;DHT22;6550;48.650;8.774;2023-06-26T06:42:14;21.30;97.20
12971;DHT22;6550;48.650;8.774;2023-06-26T06:44:43;21.40;97.00
12971;DHT22;6550;48.650;8.774;2023-06-26T06:47:10;21.60;95.90
12971;DHT22;6550;48.650;8.774;2023-06-26T06:49:37;21.60;95.20
12971;DHT22;6550;48.650;8.774;2023-06-26T06:52:06;21.80;95.50
12971;DHT22;6550;48.650;8.774;2023-06-26T06:54:51;22.00;94.00
12971;DHT22;6550;48.650;8.774;2023-06-26T06:57:21;22.10;94.80
12971;DHT22;6550;48.650;8.774;2023-06-26T06:59:48;22.00;94.50
12971;DHT22;6550;48.650;8.774;2023-06-26T07:02:18;22.40;94.40
12971;DHT22;6550;48.650;8.774;2023-06-26T07:04:45;22.60;94.40
12971;DHT22;6550;48.650;8.774;2023-06-26T07:07:18;22.70;93.30
12971;DHT22;6550;48.650;8.774;2023-06-26T07:09:45;23.00;92.60
12971;DHT22;6550;48.650;8.774;2023-06-26T07:12:14;23.30;93.00
12971;DHT22;6550;48.650;8.774;2023-06-26T07:14:41;23.30;91.40
12971;DHT22;6550;48.650;8.774;2023-06-26T07:17:08;23.70;91.20
12971;DHT22;6550;48.650;8.774;2023-06-26T07:19:35;23.70;91.70
12971;DHT22;6550;48.650;8.774;2023-06-26T07:22:02;24.10;91.00
12971;DHT22;6550;48.650;8.774;2023-06-26T07:24:33;24.50;90.70
12971;DHT22;6550;48.650;8.774;2023-06-26T07:27:02;24.40;90.70
12971;DHT22;6550;48.650;8.774;2023-06-26T07:29:29;24.50;90.80
12971;DHT22;6550;48.650;8.774;2023-06-26T07:31:55;24.50;90.60
12971;DHT22;6550;48.650;8.774;2023-06-26T07:34:22;25.10;88.40
12971;DHT22;6550;48.650;8.774;2023-06-26T07:36:52;25.40;86.50
12971;DHT22;6550;48.650;8.774;2023-06-26T07:39:19;25.70;84.00
12971;DHT22;6550;48.650;8.774;2023-06-26T07:41:49;26.20;82.30
12971;DHT22;6550;48.650;8.774;2023-06-26T07:44:16;26.20;80.60
12971;DHT22;6550;48.650;8.774;2023-06-26T07:46:45;26.10;78.90
12971;DHT22;6550;48.650;8.774;2023-06-26T07:49:15;26.00;78.70
12971;DHT22;6550;48.650;8.774;2023-06-26T07:51:44;26.10;80.40
12971;DHT22;6550;48.650;8.774;2023-06-26T07:54:11;26.40;79.20
12971;DHT22;6550;48.650;8.774;2023-06-26T07:57:04;26.40;79.40
12971;DHT22;6550;48.650;8.774;2023-06-26T07:59:33;26.60;78.20
12971;DHT22;6550;48.650;8.774;2023-06-26T08:02:01;26.70;75.10
12971;DHT22;6550;48.650;8.774;2023-06-26T08:04:29;26.70;75.80
12971;DHT22;6550;48.650;8.774;2023-06-26T08:07:00;26.60;75.80
12971;DHT22;6550;48.650;8.774;2023-06-26T08:09:31;26.80;75.60
12971;DHT22;6550;48.650;8.774;2023-06-26T08:12:00;26.70;72.90
12971;DHT22;6550;48.650;8.774;2023-06-26T08:14:30;27.20;71.40
12971;DHT22;6550;48.650;8.774;2023-06-26T08:16:58;27.20;71.40
12971;DHT22;6550;48.650;8.774;2023-06-26T08:19:26;27.20;70.00
12971;DHT22;6550;48.650;8.774;2023-06-26T08:21:53;27.30;70.60
12971;DHT22;6550;48.650;8.774;2023-06-26T08:24:24;27.40;69.50
12971;DHT22;6550;48.650;8.774;2023-06-26T08:26:54;27.80;69.20
12971;DHT22;6550;48.650;8.774;2023-06-26T08:29:26;27.70;69.00
12971;DHT22;6550;48.650;8.774;2023-06-26T08:31:57;27.70;67.50
12971;DHT22;6550;48.650;8.774;2023-06-26T08:34:24;27.80;66.90
12971;DHT22;6550;48.650;8.774;2023-06-26T08:36:53;27.80;67.00
12971;DHT22;6550;48.650;8.774;2023-06-26T08:39:20;27.80;66.90
12971;DHT22;6550;48.650;8.774;2023-06-26T08:41:47;27.90;67.00
12971;DHT22;6550;48.650;8.774;2023-06-26T08:44:14;28.00;66.80
12971;DHT22;6550;48.650;8.774;2023-06-26T08:46:41;28.10;67.70
12971;DHT22;6550;48.650;8.774;2023-06-26T08:49:25;28.30;65.40
12971;DHT22;6550;48.650;8.774;2023-06-26T08:52:05;28.30;64.50
12971;DHT22;6550;48.650;8.774;2023-06-26T08:54:40;28.30;64.00
12971;DHT22;6550;48.650;8.774;2023-06-26T08:57:10;28.30;64.70
12971;DHT22;6550;48.650;8.774;2023-06-26T08:59:38;28.20;65.20
12971;DHT22;6550;48.650;8.774;2023-06-26T09:02:05;28.20;63.70
12971;DHT22;6550;48.650;8.774;2023-06-26T09:04:32;28.30;66.50
12971;DHT22;6550;48.650;8.774;2023-06-26T09:06:59;28.60;65.50
12971;DHT22;6550;48.650;8.774;2023-06-26T09:09:27;28.60;66.00
12971;DHT22;6550;48.650;8.774;2023-06-26T09:11:54;28.70;64.60
12971;DHT22;6550;48.650;8.774;2023-06-26T09:14:29;28.70;63.60
12971;DHT22;6550;48.650;8.774;2023-06-26T09:16:56;28.70;63.40
12971;DHT22;6550;48.650;8.774;2023-06-26T09:19:23;28.80;63.60
12971;DHT22;6550;48.650;8.774;2023-06-26T09:21:52;28.70;64.10
12971;DHT22;6550;48.650;8.774;2023-06-26T09:24:23;29.00;64.20
12971;DHT22;6550;48.650;8.774;2023-06-26T09:26:51;29.20;63.00
12971;DHT22;6550;48.650;8.774;2023-06-26T09:29:21;29.00;60.60
12971;DHT22;6550;48.650;8.774;2023-06-26T09:31:51;29.20;61.00
12971;DHT22;6550;48.650;8.774;2023-06-26T09:34:18;29.40;61.60
12971;DHT22;6550;48.650;8.774;2023-06-26T09:36:47;29.50;61.40
12971;DHT22;6550;48.650;8.774;2023-06-26T09:39:15;29.50;60.40
12971;DHT22;6550;48.650;8.774;2023-06-26T09:41:43;29.50;61.30
12971;DHT22;6550;48.650;8.774;2023-06-26T09:44:11;29.50;59.90
12971;DHT22;6550;48.650;8.774;2023-06-26T09:46:39;29.50;59.60
12971;DHT22;6550;48.650;8.774;2023-06-26T09:49:12;29.60;61.30
12971;DHT22;6550;48.650;8.774;2023-06-26T09:51:43;29.60;61.40
12971;DHT22;6550;48.650;8.774;2023-06-26T09:54:10;29.60;61.50
12971;DHT22;6550;48.650;8.774;2023-06-26T09:56:37;29.40;61.50
12971;DHT22;6550;48.650;8.774;2023-06-26T09:59:07;29.30;61.50
12971;DHT22;6550;48.650;8.774;2023-06-26T10:01:41;29.20;62.30
12971;DHT22;6550;48.650;8.774;2023-06-26T10:04:08;29.20;62.80
12971;DHT22;6550;48.650;8.774;2023-06-26T10:06:49;29.30;63.20
12971;DHT22;6550;48.650;8.774;2023-06-26T10:09:19;29.00;64.80
12971;DHT22;6550;48.650;8.774;2023-06-26T10:14:16;29.00;64.90
12971;DHT22;6550;48.650;8.774;2023-06-26T10:16:45;28.90;65.60
12971;DHT22;6550;48.650;8.774;2023-06-26T10:19:18;28.60;68.20
12971;DHT22;6550;48.650;8.774;2023-06-26T10:21:47;28.70;69.80
12971;DHT22;6550;48.650;8.774;2023-06-26T10:24:14;28.70;70.20
12971;DHT22;6550;48.650;8.774;2023-06-26T10:26:44;28.40;70.00
12971;DHT22;6550;48.650;8.774;2023-06-26T10:29:16;28.60;70.60
12971;DHT22;6550;48.650;8.774;2023-06-26T10:31:51;29.20;68.80
12971;DHT22;6550;48.650;8.774;2023-06-26T10:34:19;29.00;68.60
12971;DHT22;6550;48.650;8.774;2023-06-26T10:36:47;29.30;68.60
12971;DHT22;6550;48.650;8.774;2023-06-26T10:39:14;29.10;67.50
12971;DHT22;6550;48.650;8.774;2023-06-26T10:41:42;28.80;67.80
12971;DHT22;6550;48.650;8.774;2023-06-26T10:44:43;28.80;68.00
12971;DHT22;6550;48.650;8.774;2023-06-26T10:47:11;29.00;68.00
12971;DHT22;6550;48.650;8.774;2023-06-26T10:49:38;28.60;68.20
12971;DHT22;6550;48.650;8.774;2023-06-26T10:54:33;29.00;67.20
12971;DHT22;6550;48.650;8.774;2023-06-26T10:57:04;29.00;67.70
12971;DHT22;6550;48.650;8.774;2023-06-26T10:59:34;28.90;67.60
12971;DHT22;6550;48.650;8.774;2023-06-26T11:02:04;28.80;68.00
12971;DHT22;6550;48.650;8.774;2023-06-26T11:04:44;29.00;68.20
12971;DHT22;6550;48.650;8.774;2023-06-26T11:07:22;29.50;67.90
12971;DHT22;6550;48.650;8.774;2023-06-26T11:10:00;29.20;68.30
12971;DHT22;6550;48.650;8.774;2023-06-26T11:12:44;29.20;68.40
12971;DHT22;6550;48.650;8.774;2023-06-26T11:15:18;29.40;68.20
12971;DHT22;6550;48.650;8.774;2023-06-26T11:17:48;29.70;68.00
12971;DHT22;6550;48.650;8.774;2023-06-26T11:20:16;29.50;67.30
12971;DHT22;6550;48.650;8.774;2023-06-26T11:22:44;29.50;68.10
12971;DHT22;6550;48.650;8.774;2023-06-26T11:25:14;29.20;67.60
12971;DHT22;6550;48.650;8.774;2023-06-26T11:27:44;29.20;68.10
12971;DHT22;6550;48.650;8.774;2023-06-26T11:30:23;29.40;68.50
12971;DHT22;6550;48.650;8.774;2023-06-26T11:32:50;29.20;68.80
12971;DHT22;6550;48.650;8.774;2023-06-26T11:35:25;29.30;68.60
12971;DHT22;6550;48.650;8.774;2023-06-26T11:37:57;29.30;68.60
12971;DHT22;6550;48.650;8.774;2023-06-26T11:40:36;28.90;69.80
12971;DHT22;6550;48.650;8.774;2023-06-26T11:43:04;28.90;70.30
12971;DHT22;6550;48.650;8.774;2023-06-26T11:45:32;29.00;69.70
12971;DHT22;6550;48.650;8.774;2023-06-26T11:48:00;29.00;69.50
12971;DHT22;6550;48.650;8.774;2023-06-26T11:50:28;29.20;69.20
12971;DHT22;6550;48.650;8.774;2023-06-26T11:52:56;29.00;69.70
12971;DHT22;6550;48.650;8.774;2023-06-26T11:55:27;29.00;70.10
12971;DHT22;6550;48.650;8.774;2023-06-26T11:57:54;28.80;70.20
12971;DHT22;6550;48.650;8.774;2023-06-26T12:00:22;29.20;70.60
12971;DHT22;6550;48.650;8.774;2023-06-26T12:02:52;28.90;69.80
12971;DHT22;6550;48.650;8.774;2023-06-26T12:05:20;28.90;70.80
12971;DHT22;6550;48.650;8.774;2023-06-26T12:07:47;29.20;70.00
12971;DHT22;6550;48.650;8.774;2023-06-26T12:10:15;29.00;70.90
12971;DHT22;6550;48.650;8.774;2023-06-26T12:12:43;28.90;71.10
12971;DHT22;6550;48.650;8.774;2023-06-26T12:15:15;28.90;70.60
12971;DHT22;6550;48.650;8.774;2023-06-26T12:17:42;28.80;70.80
12971;DHT22;6550;48.650;8.774;2023-06-26T12:20:30;28.70;71.90
12971;DHT22;6550;48.650;8.774;2023-06-26T12:22:59;28.90;71.30
12971;DHT22;6550;48.650;8.774;2023-06-26T12:25:28;29.10;71.60
12971;DHT22;6550;48.650;8.774;2023-06-26T12:27:57;29.20;71.70
12971;DHT22;6550;48.650;8.774;2023-06-26T12:32:51;28.90;69.70
12971;DHT22;6550;48.650;8.774;2023-06-26T12:35:18;28.60;71.50
12971;DHT22;6550;48.650;8.774;2023-06-26T12:37:47;28.60;71.40
12971;DHT22;6550;48.650;8.774;2023-06-26T12:40:18;28.90;71.40
12971;DHT22;6550;48.650;8.774;2023-06-26T12:42:48;28.40;71.60
12971;DHT22;6550;48.650;8.774;2023-06-26T12:45:17;28.70;71.30
12971;DHT22;6550;48.650;8.774;2023-06-26T12:47:47;28.50;71.50
12971;DHT22;6550;48.650;8.774;2023-06-26T12:50:19;28.90;71.20
12971;DHT22;6550;48.650;8.774;2023-06-26T12:52:46;29.00;69.90
12971;DHT22;6550;48.650;8.774;2023-06-26T12:55:15;28.90;69.40
12971;DHT22;6550;48.650;8.774;2023-06-26T13:00:09;29.10;69.00
12971;DHT22;6550;48.650;8.774;2023-06-26T13:02:39;28.70;69.50
12971;DHT22;6550;48.650;8.774;2023-06-26T13:07:35;28.60;69.10
12971;DHT22;6550;48.650;8.774;2023-06-26T13:10:02;28.80;69.70
12971;DHT22;6550;48.650;8.774;2023-06-26T13:12:29;29.40;68.50
12971;DHT22;6550;48.650;8.774;2023-06-26T13:14:58;29.00;67.90
12971;DHT22;6550;48.650;8.774;2023-06-26T13:17:27;29.10;68.40
12971;DHT22;6550;48.650;8.774;2023-06-26T13:19:55;29.00;68.80
12971;DHT22;6550;48.650;8.774;2023-06-26T13:22:22;28.80;68.60
12971;DHT22;6550;48.650;8.774;2023-06-26T13:24:49;28.10;69.30
12971;DHT22;6550;48.650;8.774;2023-06-26T13:27:20;28.00;68.20
12971;DHT22;6550;48.650;8.774;2023-06-26T13:29:52;28.40;68.60
12971;DHT22;6550;48.650;8.774;2023-06-26T13:32:22;28.60;69.40
12971;DHT22;6550;48.650;8.774;2023-06-26T13:34:51;28.60;67.60
12971;DHT22;6550;48.650;8.774;2023-06-26T13:37:18;28.50;67.60
12971;DHT22;6550;48.650;8.774;2023-06-26T13:39:46;28.60;67.70
12971;DHT22;6550;48.650;8.774;2023-06-26T13:42:17;28.70;67.00
12971;DHT22;6550;48.650;8.774;2023-06-26T13:44:44;28.80;65.60
12971;DHT22;6550;48.650;8.774;2023-06-26T13:47:29;28.60;65.90
12971;DHT22;6550;48.650;8.774;2023-06-26T13:49:56;28.80;66.60
12971;DHT22;6550;48.650;8.774;2023-06-26T13:52:23;28.70;66.00
12971;DHT22;6550;48.650;8.774;2023-06-26T13:57:20;28.10;66.10
12971;DHT22;6550;48.650;8.774;2023-06-26T13:59:49;28.30;66.00
12971;DHT22;6550;48.650;8.774;2023-06-26T14:02:16;28.40;66.60
12971;DHT22;6550;48.650;8.774;2023-06-26T14:04:43;28.30;65.50
12971;DHT22;6550;48.650;8.774;2023-06-26T14:07:10;28.10;64.90
12971;DHT22;6550;48.650;8.774;2023-06-26T14:09:39;28.00;65.90
12971;DHT22;6550;48.650;8.774;2023-06-26T14:12:09;27.90;65.70
12971;DHT22;6550;48.650;8.774;2023-06-26T14:14:36;28.30;65.50
12971;DHT22;6550;48.650;8.774;2023-06-26T14:17:03;28.10;65.50
12971;DHT22;6550;48.650;8.774;2023-06-26T14:19:33;28.00;65.40
12971;DHT22;6550;48.650;8.774;2023-06-26T14:22:00;28.30;65.50
12971;DHT22;6550;48.650;8.774;2023-06-26T14:24:30;28.30;65.90
12971;DHT22;6550;48.650;8.774;2023-06-26T14:26:56;28.30;65.20
12971;DHT22;6550;48.650;8.774;2023-06-26T14:29:23;28.00;66.60
12971;DHT22;6550;48.650;8.774;2023-06-26T14:31:50;28.20;66.10
12971;DHT22;6550;48.650;8.774;2023-06-26T14:34:21;28.30;66.60
12971;DHT22;6550;48.650;8.774;2023-06-26T14:36:47;27.90;65.60
12971;DHT22;6550;48.650;8.774;2023-06-26T14:39:17;27.90;66.30
12971;DHT22;6550;48.650;8.774;2023-06-26T14:41:46;27.80;64.70
12971;DHT22;6550;48.650;8.774;2023-06-26T14:46:44;27.70;64.60
12971;DHT22;6550;48.650;8.774;2023-06-26T14:49:14;28.10;65.90
12971;DHT22;6550;48.650;8.774;2023-06-26T14:51:41;28.20;65.30
12971;DHT22;6550;48.650;8.774;2023-06-26T14:54:09;28.10;66.20
12971;DHT22;6550;48.650;8.774;2023-06-26T14:56:38;28.00;66.10
12971;DHT22;6550;48.650;8.774;2023-06-26T14:59:07;27.80;66.10
12971;DHT22;6550;48.650;8.774;2023-06-26T15:01:34;27.60;66.80
12971;DHT22;6550;48.650;8.774;2023-06-26T15:04:01;27.50;66.80
12971;DHT22;6550;48.650;8.774;2023-06-26T15:06:28;27.40;67.70
12971;DHT22;6550;48.650;8.774;2023-06-26T15:08:55;27.40;67.50
12971;DHT22;6550;48.650;8.774;2023-06-26T15:11:24;27.10;67.60
12971;DHT22;6550;48.650;8.774;2023-06-26T15:13:55;27.00;67.40
12971;DHT22;6550;48.650;8.774;2023-06-26T15:16:24;26.80;67.20
12971;DHT22;6550;48.650;8.774;2023-06-26T15:18:51;27.00;67.90
12971;DHT22;6550;48.650;8.774;2023-06-26T15:21:18;26.70;68.50
12971;DHT22;6550;48.650;8.774;2023-06-26T15:23:49;26.60;68.20
12971;DHT22;6550;48.650;8.774;2023-06-26T15:26:16;27.20;67.70
12971;DHT22;6550;48.650;8.774;2023-06-26T15:28:45;27.20;67.20
12971;DHT22;6550;48.650;8.774;2023-06-26T15:31:13;27.00;66.60
12971;DHT22;6550;48.650;8.774;2023-06-26T15:33:40;26.80;67.80
12971;DHT22;6550;48.650;8.774;2023-06-26T15:36:07;26.60;69.10
12971;DHT22;6550;48.650;8.774;2023-06-26T15:38:34;27.00;68.60
12971;DHT22;6550;48.650;8.774;2023-06-26T15:43:29;27.00;67.00
12971;DHT22;6550;48.650;8.774;2023-06-26T15:45:58;26.90;67.30
12971;DHT22;6550;48.650;8.774;2023-06-26T15:48:27;27.20;67.60
12971;DHT22;6550;48.650;8.774;2023-06-26T15:50:58;26.90;68.00
12971;DHT22;6550;48.650;8.774;2023-06-26T15:53:37;26.60;67.50
12971;DHT22;6550;48.650;8.774;2023-06-26T15:56:09;26.50;67.60
12971;DHT22;6550;48.650;8.774;2023-06-26T15:58:37;26.40;67.80
12971;DHT22;6550;48.650;8.774;2023-06-26T16:01:09;26.40;68.40
12971;DHT22;6550;48.650;8.774;2023-06-26T16:03:40;26.30;68.20
12971;DHT22;6550;48.650;8.774;2023-06-26T16:06:08;26.20;67.80
12971;DHT22;6550;48.650;8.774;2023-06-26T16:08:36;26.20;67.80
12971;DHT22;6550;48.650;8.774;2023-06-26T16:11:03;26.00;67.20
12971;DHT22;6550;48.650;8.774;2023-06-26T16:13:32;25.90;67.50
12971;DHT22;6550;48.650;8.774;2023-06-26T16:16:01;25.60;65.00
12971;DHT22;6550;48.650;8.774;2023-06-26T16:18:28;25.50;65.50
12971;DHT22;6550;48.650;8.774;2023-06-26T16:20:55;25.30;65.00
12971;DHT22;6550;48.650;8.774;2023-06-26T16:23:25;25.40;65.60
12971;DHT22;6550;48.650;8.774;2023-06-26T16:25:54;25.60;65.80
12971;DHT22;6550;48.650;8.774;2023-06-26T16:28:21;25.60;64.70
12971;DHT22;6550;48.650;8.774;2023-06-26T16:30:48;25.80;65.00